createdAt,value
2018-12-09T00:01:22.811Z,34.40
2018-12-09T00:03:55.741Z,38.05
2018-12-09T00:06:28.648Z,31.23
2018-12-09T00:08:59.379Z,32.28
2018-12-09T00:11:30.200Z,24.15
2018-12-09T00:14:01.239Z,23.95
2018-12-09T00:16:31.987Z,23.00
2018-12-09T00:19:02.873Z,21.55
2018-12-09T00:21:34.663Z,19.37
2018-12-09T00:24:05.310Z,25.60
2018-12-09T00:26:36.065Z,21.62
2018-12-09T00:29:06.731Z,21.07
2018-12-09T00:31:37.140Z,23.10
2018-12-09T00:34:08.246Z,20.08
2018-12-09T00:36:38.877Z,26.52
2018-12-09T00:39:09.663Z,22.35
2018-12-09T00:41:40.295Z,42.73
2018-12-09T00:44:10.992Z,31.95
2018-12-09T00:46:41.728Z,21.93
2018-12-09T00:49:12.415Z,22.37
2018-12-09T00:51:43.029Z,22.32
2018-12-09T00:54:13.657Z,20.37
2018-12-09T00:56:44.632Z,22.45
2018-12-09T00:59:15.601Z,22.52
2018-12-09T01:01:46.133Z,26.70
2018-12-09T01:04:16.639Z,22.75
2018-12-09T01:06:47.827Z,24.35
2018-12-09T01:09:18.780Z,19.55
2018-12-09T01:11:49.565Z,22.32
2018-12-09T01:14:20.267Z,23.50
2018-12-09T01:16:50.832Z,25.88
2018-12-09T01:19:21.372Z,24.75
2018-12-09T01:21:52.003Z,22.62
2018-12-09T01:24:22.564Z,29.75
2018-12-09T01:26:53.163Z,28.10
2018-12-09T01:29:23.844Z,30.65
2018-12-09T01:31:54.541Z,32.55
2018-12-09T01:34:25.196Z,38.63
2018-12-09T01:36:55.854Z,47.35
2018-12-09T01:39:26.726Z,36.73
2018-12-09T01:41:57.715Z,34.98
2018-12-09T01:44:28.631Z,32.88
2018-12-09T01:46:59.467Z,31.48
2018-12-09T01:49:30.605Z,33.38
2018-12-09T01:52:01.236Z,42.13
2018-12-09T01:54:33.428Z,41.50
2018-12-09T01:57:04.287Z,39.48
2018-12-09T01:59:34.872Z,39.10
2018-12-09T02:02:06.214Z,40.73
2018-12-09T02:04:36.754Z,29.07
2018-12-09T02:07:07.602Z,31.55
2018-12-09T02:09:38.040Z,25.68
2018-12-09T02:12:09.045Z,87.62
2018-12-09T02:14:39.598Z,128.10
2018-12-09T02:17:10.127Z,40.23
2018-12-09T02:19:40.992Z,30.68
2018-12-09T02:22:11.797Z,50.25
2018-12-09T02:24:42.188Z,101.35
2018-12-09T02:27:13.001Z,62.62
2018-12-09T02:29:49.565Z,61.98
2018-12-09T02:32:20.285Z,53.52
2018-12-09T02:34:53.077Z,35.98
2018-12-09T02:37:23.865Z,42.40
2018-12-09T02:39:54.496Z,34.92
2018-12-09T02:42:31.433Z,34.35
2018-12-09T02:45:02.407Z,32.17
2018-12-09T02:47:34.359Z,33.60
2018-12-09T02:50:04.993Z,34.60
2018-12-09T02:52:35.830Z,29.60
2018-12-09T02:55:07.038Z,30.50
2018-12-09T02:57:37.553Z,31.57
2018-12-09T03:00:08.277Z,31.73
2018-12-09T03:02:40.109Z,32.35
2018-12-09T03:05:10.910Z,39.42
2018-12-09T03:07:41.495Z,41.90
2018-12-09T03:10:12.206Z,37.30
2018-12-09T03:12:42.832Z,38.63
2018-12-09T03:15:13.680Z,39.85
2018-12-09T03:17:44.418Z,42.93
2018-12-09T03:20:15.031Z,40.63
2018-12-09T03:22:45.517Z,40.92
2018-12-09T03:25:16.132Z,40.23
2018-12-09T03:27:46.808Z,44.93
2018-12-09T03:30:17.455Z,39.42
2018-12-09T03:32:48.042Z,42.62
2018-12-09T03:35:18.579Z,43.78
2018-12-09T03:37:49.288Z,39.92
2018-12-09T03:40:19.875Z,39.70
2018-12-09T03:42:50.468Z,46.42
2018-12-09T03:45:21.103Z,38.70
2018-12-09T03:47:51.625Z,39.98
2018-12-09T03:50:22.641Z,57.20
2018-12-09T03:52:53.467Z,56.20
2018-12-09T03:55:23.925Z,43.45
2018-12-09T03:57:54.825Z,42.80
2018-12-09T04:00:25.570Z,50.92
2018-12-09T04:02:56.365Z,45.90
2018-12-09T04:05:26.995Z,45.70
2018-12-09T04:07:58.049Z,59.67
2018-12-09T04:10:29.073Z,49.98
2018-12-09T04:12:59.850Z,45.55
2018-12-09T04:15:32.638Z,52.83
2018-12-09T04:18:05.338Z,67.53
2018-12-09T04:20:36.020Z,50.17
2018-12-09T04:23:06.920Z,54.88
2018-12-09T04:25:37.591Z,47.90
2018-12-09T04:28:08.546Z,45.65
2018-12-09T04:30:39.174Z,43.98
2018-12-09T04:33:10.189Z,46.35
2018-12-09T04:35:40.997Z,53.80
2018-12-09T04:38:11.683Z,47.20
2018-12-09T04:40:42.482Z,57.65
2018-12-09T04:43:12.990Z,57.90
2018-12-09T04:45:44.204Z,50.50
2018-12-09T04:48:14.960Z,54.30
2018-12-09T04:50:45.555Z,53.60
2018-12-09T04:53:16.386Z,51.40
2018-12-09T04:55:47.330Z,51.10
2018-12-09T04:58:18.075Z,67.40
2018-12-09T05:00:58.183Z,49.18
2018-12-09T05:03:28.798Z,47.13
2018-12-09T05:05:59.927Z,75.67
2018-12-09T05:08:30.946Z,66.67
2018-12-09T05:11:01.675Z,57.25
2018-12-09T05:13:32.461Z,60.50
2018-12-09T05:16:03.268Z,61.10
2018-12-09T05:18:34.901Z,49.33
2018-12-09T05:21:05.541Z,38.40
2018-12-09T05:23:36.145Z,35.70
2018-12-09T05:26:06.142Z,44.88
2018-12-09T05:28:37.177Z,39.88
2018-12-09T05:31:07.907Z,38.35
2018-12-09T05:33:38.655Z,39.10
2018-12-09T05:36:09.382Z,36.65
2018-12-09T05:38:40.094Z,42.75
2018-12-09T05:41:10.665Z,37.58
2018-12-09T05:43:41.496Z,40.55
2018-12-09T05:46:12.512Z,53.80
2018-12-09T05:48:43.249Z,52.48
2018-12-09T05:51:14.261Z,55.38
2018-12-09T05:53:44.884Z,61.28
2018-12-09T05:56:15.418Z,66.72
2018-12-09T05:58:46.191Z,59.88
2018-12-09T06:01:17.019Z,53.52
2018-12-09T06:03:47.554Z,45.85
2018-12-09T06:06:18.247Z,103.83
2018-12-09T06:08:49.397Z,88.50
2018-12-09T06:11:19.948Z,81.47
2018-12-09T06:13:50.443Z,78.87
2018-12-09T06:16:21.085Z,52.13
2018-12-09T06:18:51.934Z,54.33
2018-12-09T06:21:22.560Z,60.75
2018-12-09T06:23:53.169Z,59.40
2018-12-09T06:26:23.698Z,36.63
2018-12-09T06:28:54.463Z,41.90
2018-12-09T06:31:25.507Z,35.48
2018-12-09T06:33:56.104Z,37.28
2018-12-09T06:36:26.781Z,42.17
2018-12-09T06:38:57.256Z,30.32
2018-12-09T06:41:28.399Z,28.98
2018-12-09T06:43:59.376Z,25.68
2018-12-09T06:46:29.966Z,31.85
2018-12-09T06:49:00.558Z,32.30
2018-12-09T06:51:31.272Z,29.20
2018-12-09T06:54:02.058Z,53.80
2018-12-09T06:56:32.836Z,32.93
2018-12-09T06:59:03.773Z,41.25
2018-12-09T07:01:34.509Z,42.00
2018-12-09T07:04:07.232Z,51.00
2018-12-09T07:06:38.068Z,67.22
2018-12-09T07:09:09.006Z,47.08
2018-12-09T07:11:39.511Z,35.75
2018-12-09T07:14:10.605Z,38.95
2018-12-09T07:16:41.232Z,40.75
2018-12-09T07:19:12.322Z,38.98
2018-12-09T07:21:43.186Z,44.13
2018-12-09T07:24:14.293Z,52.25
2018-12-09T07:26:45.270Z,47.03
2018-12-09T07:29:15.879Z,32.77
2018-12-09T07:31:46.528Z,36.30
2018-12-09T07:34:17.306Z,30.53
2018-12-09T07:36:48.148Z,39.70
2018-12-09T07:39:18.996Z,33.87
2018-12-09T07:41:50.774Z,45.20
2018-12-09T07:44:21.817Z,35.93
2018-12-09T07:46:52.516Z,26.77
2018-12-09T07:49:23.169Z,31.13
2018-12-09T07:51:53.858Z,25.53
2018-12-09T07:54:24.500Z,30.00
2018-12-09T07:56:55.116Z,25.83
2018-12-09T07:59:25.867Z,29.13
2018-12-09T08:01:56.747Z,24.20
2018-12-09T08:04:27.441Z,24.67
2018-12-09T08:06:58.328Z,22.73
2018-12-09T08:09:29.092Z,27.03
2018-12-09T08:12:00.073Z,29.40
2018-12-09T08:14:31.127Z,22.27
2018-12-09T08:17:02.026Z,21.37
2018-12-09T08:19:32.680Z,29.90
2018-12-09T08:22:03.527Z,22.20
2018-12-09T08:24:34.236Z,23.07
2018-12-09T08:27:04.908Z,22.93
2018-12-09T08:29:35.772Z,24.07
2018-12-09T08:32:06.580Z,21.60
2018-12-09T08:34:37.305Z,23.77
2018-12-09T08:37:07.826Z,22.63
2018-12-09T08:39:38.682Z,20.87
2018-12-09T08:42:09.325Z,21.87
2018-12-09T08:44:39.882Z,22.03
2018-12-09T08:47:10.438Z,20.43
2018-12-09T08:49:40.972Z,24.37
2018-12-09T08:52:11.926Z,29.70
2018-12-09T08:54:42.801Z,25.23
2018-12-09T08:57:13.473Z,29.80
2018-12-09T08:59:44.024Z,30.27
2018-12-09T09:02:14.722Z,28.80
2018-12-09T09:04:45.732Z,28.63
2018-12-09T09:07:16.651Z,33.60
2018-12-09T09:09:47.196Z,32.73
2018-12-09T09:12:17.721Z,48.63
2018-12-09T09:14:48.377Z,34.33
2018-12-09T09:17:19.064Z,32.80
2018-12-09T09:19:49.779Z,43.43
2018-12-09T09:22:20.211Z,36.30
2018-12-09T09:24:50.868Z,36.83
2018-12-09T09:27:21.512Z,43.57
2018-12-09T09:29:52.350Z,31.00
2018-12-09T09:32:23.106Z,23.10
2018-12-09T09:34:54.426Z,19.33
2018-12-09T09:37:25.467Z,19.70
2018-12-09T09:39:56.815Z,17.90
2018-12-09T09:42:27.997Z,23.40
2018-12-09T09:44:58.856Z,20.67
2018-12-09T09:47:29.653Z,21.33
2018-12-09T09:50:00.474Z,19.83
2018-12-09T09:52:31.186Z,23.03
2018-12-09T09:55:02.125Z,22.07
2018-12-09T09:57:32.616Z,21.17
2018-12-09T10:00:03.582Z,23.30
2018-12-09T10:02:34.391Z,25.73
2018-12-09T10:05:12.641Z,22.03
2018-12-09T10:07:43.500Z,22.90
2018-12-09T10:10:14.274Z,23.87
2018-12-09T10:12:45.009Z,23.40
2018-12-09T10:15:16.002Z,20.90
2018-12-09T10:17:46.787Z,24.80
2018-12-09T10:20:17.428Z,21.87
2018-12-09T10:22:48.394Z,19.13
2018-12-09T10:25:19.376Z,21.93
2018-12-09T10:27:49.970Z,21.60
2018-12-09T10:30:20.697Z,29.30
2018-12-09T10:32:51.498Z,22.67
2018-12-09T10:35:23.437Z,28.00
2018-12-09T10:37:54.152Z,28.87
2018-12-09T10:40:25.220Z,23.57
2018-12-09T10:42:55.828Z,26.63
2018-12-09T10:45:26.790Z,28.33
2018-12-09T10:47:57.482Z,29.93
2018-12-09T10:50:28.051Z,35.03
2018-12-09T10:52:59.201Z,26.30
2018-12-09T10:55:29.723Z,66.93
2018-12-09T10:58:00.331Z,27.63
2018-12-09T11:00:36.151Z,26.63
2018-12-09T11:03:06.997Z,26.33
2018-12-09T11:05:37.727Z,29.00
2018-12-09T11:08:08.390Z,37.37
2018-12-09T11:10:38.890Z,33.43
2018-12-09T11:13:09.796Z,26.67
2018-12-09T11:15:40.778Z,31.17
2018-12-09T11:18:11.499Z,34.93
2018-12-09T11:20:42.283Z,50.93
2018-12-09T11:23:13.103Z,78.10
2018-12-09T11:25:44.526Z,30.50
2018-12-09T11:28:15.056Z,30.37
2018-12-09T11:30:45.770Z,38.83
2018-12-09T11:33:16.499Z,31.07
2018-12-09T11:35:47.134Z,29.30
2018-12-09T11:38:17.790Z,25.93
2018-12-09T11:40:48.536Z,24.43
2018-12-09T11:43:19.365Z,30.27
2018-12-09T11:45:50.027Z,30.70
2018-12-09T11:48:20.818Z,25.73
2018-12-09T11:50:51.400Z,28.17
2018-12-09T11:53:22.437Z,24.00
2018-12-09T11:55:53.505Z,24.50
2018-12-09T11:58:24.418Z,24.43
2018-12-09T12:00:54.840Z,26.97
2018-12-09T12:03:25.878Z,21.40
2018-12-09T12:05:56.484Z,29.50
2018-12-09T12:08:27.071Z,195.70
2018-12-09T12:10:57.603Z,28.77
2018-12-09T12:13:29.266Z,47.97
2018-12-09T12:15:59.893Z,27.73
2018-12-09T12:18:30.418Z,28.97
2018-12-09T12:21:01.282Z,25.83
2018-12-09T12:23:32.091Z,38.83
2018-12-09T12:26:03.234Z,49.10
2018-12-09T12:28:34.086Z,58.13
2018-12-09T12:31:04.817Z,33.83
2018-12-09T12:33:35.800Z,29.90
2018-12-09T12:36:06.845Z,29.53
2018-12-09T12:38:37.642Z,32.27
2018-12-09T12:41:08.872Z,33.13
2018-12-09T12:43:40.938Z,30.10
2018-12-09T12:46:11.632Z,36.50
2018-12-09T12:48:42.286Z,28.10
2018-12-09T12:51:12.972Z,27.53
2018-12-09T12:53:43.970Z,30.40
2018-12-09T12:56:14.666Z,38.53
2018-12-09T12:58:45.433Z,26.90
2018-12-09T13:01:16.346Z,30.77
2018-12-09T13:03:47.252Z,30.00
2018-12-09T13:06:18.709Z,29.80
2018-12-09T13:08:49.320Z,32.00
2018-12-09T13:11:19.857Z,37.57
2018-12-09T13:13:50.983Z,41.83
2018-12-09T13:16:21.853Z,42.80
2018-12-09T13:18:52.400Z,43.30
2018-12-09T13:21:23.145Z,38.20
2018-12-09T13:23:53.735Z,30.97
2018-12-09T13:26:24.484Z,31.50
2018-12-09T13:28:55.401Z,35.77
2018-12-09T13:31:26.107Z,30.30
2018-12-09T13:33:56.932Z,38.73
2018-12-09T13:36:27.939Z,33.27
2018-12-09T13:38:59.335Z,33.10
2018-12-09T13:41:30.070Z,29.03
2018-12-09T13:44:00.756Z,35.20
2018-12-09T13:46:31.829Z,32.60
2018-12-09T13:49:02.512Z,31.13
2018-12-09T13:51:34.360Z,33.50
2018-12-09T13:54:05.618Z,32.57
2018-12-09T13:56:36.380Z,28.97
2018-12-09T13:59:07.236Z,27.83
2018-12-09T14:01:37.950Z,26.30
2018-12-09T14:04:08.927Z,23.80
2018-12-09T14:06:39.741Z,32.77
2018-12-09T14:09:10.633Z,28.23
2018-12-09T14:11:41.174Z,32.07
2018-12-09T14:14:11.778Z,30.10
2018-12-09T14:16:42.488Z,32.00
2018-12-09T14:19:13.470Z,37.07
2018-12-09T14:21:44.274Z,36.47
2018-12-09T14:24:14.920Z,42.33
2018-12-09T14:26:45.580Z,49.10
2018-12-09T14:29:16.162Z,57.97
2018-12-09T14:31:47.307Z,61.63
2018-12-09T14:34:18.092Z,62.33
2018-12-09T14:36:48.734Z,50.03
2018-12-09T14:39:19.546Z,52.13
2018-12-09T14:41:50.818Z,47.90
2018-12-09T14:44:21.676Z,44.30
2018-12-09T14:46:52.327Z,43.10
2018-12-09T14:49:24.158Z,41.43
2018-12-09T14:51:54.791Z,47.10
2018-12-09T14:54:25.341Z,42.03
2018-12-09T14:56:55.874Z,40.23
2018-12-09T14:59:26.647Z,42.43
2018-12-09T15:01:57.283Z,43.20
2018-12-09T15:04:28.272Z,44.37
2018-12-09T15:06:59.061Z,44.10
2018-12-09T15:09:30.103Z,71.53
2018-12-09T15:12:01.026Z,83.80
2018-12-09T15:14:31.928Z,69.93
2018-12-09T15:17:02.652Z,162.70
2018-12-09T15:19:33.439Z,122.53
2018-12-09T15:22:04.098Z,101.13
2018-12-09T15:24:41.348Z,80.53
2018-12-09T15:27:07.792Z,67.60
2018-12-09T15:29:38.637Z,76.17
2018-12-09T15:32:10.333Z,103.10
2018-12-09T15:34:40.927Z,86.10
2018-12-09T15:37:11.535Z,106.87
2018-12-09T15:39:42.344Z,91.43
2018-12-09T15:42:13.058Z,83.73
2018-12-09T15:44:43.666Z,69.37
2018-12-09T15:47:14.386Z,66.17
2018-12-09T15:49:45.148Z,55.07
2018-12-09T15:52:15.940Z,87.53
2018-12-09T15:54:46.934Z,136.53
2018-12-09T15:57:17.750Z,222.77
2018-12-09T15:59:48.428Z,212.70
2018-12-09T16:02:19.275Z,102.53
2018-12-09T16:04:50.179Z,67.90
2018-12-09T16:07:20.891Z,108.67
2018-12-09T16:09:51.583Z,72.77
2018-12-09T16:12:22.244Z,46.93
2018-12-09T16:14:53.062Z,54.57
2018-12-09T16:17:24.002Z,47.70
2018-12-09T16:19:55.067Z,51.23
2018-12-09T16:22:25.889Z,59.80
2018-12-09T16:24:56.567Z,47.13
2018-12-09T16:27:28.552Z,49.33
2018-12-09T16:30:02.407Z,398.50
2018-12-09T16:32:33.878Z,109.47
2018-12-09T16:35:05.524Z,91.93
2018-12-09T16:37:37.262Z,80.83
2018-12-09T16:40:08.500Z,80.83
2018-12-09T16:42:39.392Z,53.00
2018-12-09T16:45:10.011Z,56.80
2018-12-09T16:47:40.859Z,74.00
2018-12-09T16:50:11.668Z,115.07
2018-12-09T16:52:42.172Z,104.83
2018-12-09T16:55:12.709Z,83.73
2018-12-09T16:57:43.433Z,86.67
2018-12-09T17:00:14.314Z,76.43
2018-12-09T17:02:45.308Z,76.27
2018-12-09T17:05:16.190Z,100.80
2018-12-09T17:07:46.895Z,131.07
2018-12-09T17:10:17.686Z,107.23
2018-12-09T17:12:48.216Z,60.57
2018-12-09T17:15:19.375Z,56.10
2018-12-09T17:17:50.284Z,45.40
2018-12-09T17:20:21.065Z,37.90
2018-12-09T17:22:51.832Z,41.33
2018-12-09T17:25:22.632Z,38.23
2018-12-09T17:27:53.564Z,36.93
2018-12-09T17:30:24.848Z,41.90
2018-12-09T17:32:56.178Z,70.40
2018-12-09T17:35:27.177Z,65.77
2018-12-09T17:37:57.839Z,62.20
2018-12-09T17:40:29.651Z,64.20
2018-12-09T17:43:00.636Z,62.10
2018-12-09T17:45:31.427Z,72.80
2018-12-09T17:48:02.333Z,50.50
2018-12-09T17:50:33.059Z,49.87
2018-12-09T17:53:05.709Z,44.57
2018-12-09T17:55:36.511Z,82.17
2018-12-09T17:58:07.068Z,72.37
2018-12-09T18:00:40.087Z,40.33
2018-12-09T18:03:11.250Z,35.00
2018-12-09T18:05:42.174Z,41.47
2018-12-09T18:08:13.912Z,38.10
2018-12-09T18:10:44.763Z,38.47
2018-12-09T18:13:16.097Z,53.27
2018-12-09T18:15:50.657Z,37.33
2018-12-09T18:18:21.603Z,39.87
2018-12-09T18:20:52.394Z,34.27
2018-12-09T18:23:22.900Z,69.67
2018-12-09T18:25:53.728Z,40.30
2018-12-09T18:28:25.575Z,41.50
2018-12-09T18:30:57.155Z,58.83
2018-12-09T18:33:27.894Z,45.03
2018-12-09T18:35:58.658Z,46.70
2018-12-09T18:38:29.251Z,45.17
2018-12-09T18:41:00.125Z,40.50
2018-12-09T18:43:31.315Z,44.63
2018-12-09T18:46:02.883Z,84.13
2018-12-09T18:48:33.792Z,75.23
2018-12-09T18:51:04.644Z,105.43
2018-12-09T18:53:35.295Z,71.73
2018-12-09T18:56:06.400Z,64.97
2018-12-09T18:58:37.187Z,56.53
2018-12-09T19:01:07.782Z,55.17
2018-12-09T19:03:38.714Z,48.90
2018-12-09T19:06:10.369Z,55.30
2018-12-09T19:08:52.833Z,79.40
2018-12-09T19:11:23.712Z,67.87
2018-12-09T19:13:54.382Z,67.93
2018-12-09T19:16:25.050Z,112.70
2018-12-09T19:18:55.778Z,104.40
2018-12-09T19:21:26.445Z,101.07
2018-12-09T19:23:57.442Z,98.40
2018-12-09T19:26:29.512Z,75.53
2018-12-09T19:29:00.373Z,71.83
2018-12-09T19:31:31.071Z,63.53
2018-12-09T19:34:05.421Z,60.13
2018-12-09T19:36:36.840Z,76.13
2018-12-09T19:39:08.812Z,94.40
2018-12-09T19:41:41.559Z,109.33
2018-12-09T19:44:12.256Z,118.37
2018-12-09T19:46:43.235Z,119.97
2018-12-09T19:49:15.475Z,101.10
2018-12-09T19:51:46.716Z,93.53
2018-12-09T19:54:17.654Z,100.77
2018-12-09T19:56:48.431Z,96.87
2018-12-09T19:59:18.924Z,110.67
2018-12-09T20:01:49.713Z,125.83
2018-12-09T20:04:20.979Z,132.40
2018-12-09T20:06:52.704Z,135.10
2018-12-09T20:09:23.359Z,137.87
2018-12-09T20:11:54.472Z,161.37
2018-12-09T20:14:25.178Z,155.57
2018-12-09T20:16:56.346Z,182.90
2018-12-09T20:19:27.168Z,176.20
2018-12-09T20:21:57.967Z,145.53
2018-12-09T20:24:28.859Z,144.37
2018-12-09T20:26:59.424Z,115.63
2018-12-09T20:29:29.958Z,117.03
2018-12-09T20:32:01.241Z,118.37
2018-12-09T20:34:32.251Z,128.53
2018-12-09T20:37:02.813Z,133.20
2018-12-09T20:39:33.403Z,120.23
2018-12-09T20:42:04.230Z,113.77
2018-12-09T20:44:34.764Z,107.33
2018-12-09T20:47:05.393Z,115.77
2018-12-09T20:49:36.383Z,115.60
2018-12-09T20:52:07.106Z,117.27
2018-12-09T20:54:37.852Z,105.17
2018-12-09T20:57:08.645Z,104.97
2018-12-09T20:59:39.437Z,100.80
2018-12-09T21:02:10.163Z,95.43
2018-12-09T21:04:41.124Z,96.63
2018-12-09T21:07:11.944Z,99.17
2018-12-09T21:09:42.558Z,95.87
2018-12-09T21:12:13.386Z,105.00
2018-12-09T21:14:44.118Z,128.53
2018-12-09T21:17:14.908Z,140.57
2018-12-09T21:19:45.666Z,151.23
2018-12-09T21:22:16.338Z,145.60
2018-12-09T21:24:47.294Z,151.20
2018-12-09T21:27:18.063Z,139.80
2018-12-09T21:29:48.948Z,161.87
2018-12-09T21:32:19.764Z,186.30
2018-12-09T21:34:53.493Z,172.40
2018-12-09T21:37:24.436Z,148.67
2018-12-09T21:39:55.191Z,116.33
2018-12-09T21:42:26.022Z,114.27
2018-12-09T21:44:56.783Z,103.63
2018-12-09T21:47:27.480Z,92.13
2018-12-09T21:49:58.351Z,92.20
2018-12-09T21:52:29.081Z,86.73
2018-12-09T21:54:59.844Z,88.70
2018-12-09T21:57:30.594Z,83.70
2018-12-09T22:00:01.269Z,79.13
2018-12-09T22:02:32.424Z,81.37
2018-12-09T22:05:03.086Z,80.27
2018-12-09T22:07:33.807Z,83.73
2018-12-09T22:10:05.148Z,75.67
2018-12-09T22:12:36.590Z,74.60
2018-12-09T22:15:07.551Z,79.60
2018-12-09T22:17:38.401Z,95.13
2018-12-09T22:20:09.046Z,95.90
2018-12-09T22:22:39.937Z,80.83
2018-12-09T22:25:10.598Z,77.60
2018-12-09T22:27:41.545Z,88.77
2018-12-09T22:30:12.348Z,97.70
2018-12-09T22:32:43.015Z,103.50
2018-12-09T22:35:13.894Z,109.70
2018-12-09T22:37:44.444Z,97.90
2018-12-09T22:40:15.134Z,109.40
2018-12-09T22:42:45.823Z,98.87
2018-12-09T22:45:16.355Z,90.90
2018-12-09T22:47:46.906Z,91.37
2018-12-09T22:50:17.604Z,84.03
2018-12-09T22:52:48.518Z,91.73
2018-12-09T22:55:19.321Z,85.23
2018-12-09T22:57:50.121Z,91.63
2018-12-09T23:00:26.319Z,95.87
2018-12-09T23:03:05.670Z,102.27
2018-12-09T23:05:36.603Z,101.87
2018-12-09T23:08:07.330Z,137.80
2018-12-09T23:10:38.024Z,133.10
2018-12-09T23:13:09.004Z,127.10
2018-12-09T23:15:40.346Z,122.80
2018-12-09T23:18:11.007Z,116.47
2018-12-09T23:20:41.775Z,121.03
2018-12-09T23:23:12.427Z,113.70
2018-12-09T23:25:43.136Z,105.57
2018-12-09T23:28:13.752Z,102.63
2018-12-09T23:30:44.442Z,106.03
2018-12-09T23:33:15.254Z,97.37
2018-12-09T23:35:46.140Z,109.13
2018-12-09T23:38:16.629Z,103.67
2018-12-09T23:40:47.432Z,105.97
2018-12-09T23:43:18.245Z,104.50
2018-12-09T23:45:49.026Z,111.70
2018-12-09T23:48:19.955Z,109.30
2018-12-09T23:50:50.522Z,108.03
2018-12-09T23:53:21.075Z,110.07
2018-12-09T23:55:51.740Z,107.10
2018-12-09T23:58:22.582Z,101.87
